Time;durP1;ratioP1;P1;durP2;ratioP2;P2;SDS_P1;SDS_P2;PMS_P1;PMS_P2;Temp;Humidity;BMP_temperature;BMP_pressure;BME280_temperature;BME280_humidity;BME280_pressure;Samples;Min_cycle;Max_cycle;Signal;HPM_P1;HPM_P2
2021/12/03 00:02:10;;;;;;;0.50;0.50;;;;;;;;;;5093849;28;20780;-63
2021/12/03 00:04:36;;;;;;;0.50;0.50;;;;;;;;;;5094114;28;20843;-63
2021/12/03 00:07:02;;;;;;;0.50;0.50;;;;;;;;;;5093805;28;20234;-63
2021/12/03 00:09:34;;;;;;;0.50;0.50;;;;;;;;;;5093989;28;20897;-63
2021/12/03 00:12:00;;;;;;;0.60;0.60;;;;;;;;;;5093736;28;20591;-62
2021/12/03 00:14:25;;;;;;;0.60;0.60;;;;;;;;;;5093824;28;20206;-63
2021/12/03 00:16:51;;;;;;;0.60;0.60;;;;;;;;;;5093802;28;20240;-62
2021/12/03 00:19:17;;;;;;;0.60;0.60;;;;;;;;;;5075727;28;20408;-63
2021/12/03 00:21:43;;;;;;;0.63;0.63;;;;;;;;;;5093593;28;20450;-63
2021/12/03 00:24:09;;;;;;;0.60;0.60;;;;;;;;;;5093683;28;20903;-64
2021/12/03 00:26:35;;;;;;;0.60;0.60;;;;;;;;;;5095258;28;20414;-63
2021/12/03 00:29:01;;;;;;;0.60;0.60;;;;;;;;;;5094023;28;20409;-63
2021/12/03 00:31:27;;;;;;;0.50;0.50;;;;;;;;;;5093583;28;20413;-63
2021/12/03 00:33:53;;;;;;;0.50;0.50;;;;;;;;;;5093455;28;20555;-63
2021/12/03 00:36:19;;;;;;;0.60;0.60;;;;;;;;;;5093515;28;20243;-64
2021/12/03 00:38:49;;;;;;;0.57;0.57;;;;;;;;;;5093337;28;20665;-63
2021/12/03 00:41:19;;;;;;;0.50;0.50;;;;;;;;;;5093042;28;20170;-63
2021/12/03 00:43:47;;;;;;;0.60;0.60;;;;;;;;;;5092532;28;20220;-63
2021/12/03 00:46:16;;;;;;;0.60;0.60;;;;;;;;;;5093206;28;20175;-64
2021/12/03 00:48:42;;;;;;;0.60;0.60;;;;;;;;;;5093224;28;20218;-63
2021/12/03 00:51:09;;;;;;;0.50;0.50;;;;;;;;;;5092910;28;20844;-63
2021/12/03 00:53:36;;;;;;;0.50;0.50;;;;;;;;;;5092925;28;20277;-63
2021/12/03 00:56:02;;;;;;;0.60;0.60;;;;;;;;;;5093059;28;20227;-62
2021/12/03 00:58:28;;;;;;;0.60;0.60;;;;;;;;;;5093079;28;20198;-62
2021/12/03 01:00:54;;;;;;;0.60;0.60;;;;;;;;;;5074685;28;20660;-63
2021/12/03 01:03:20;;;;;;;0.60;0.60;;;;;;;;;;5092872;28;20416;-63
2021/12/03 01:05:46;;;;;;;0.60;0.60;;;;;;;;;;5092819;28;20451;-62
2021/12/03 01:08:12;;;;;;;0.60;0.60;;;;;;;;;;5074411;28;20660;-63
2021/12/03 01:10:38;;;;;;;0.60;0.60;;;;;;;;;;5092621;28;20210;-63
2021/12/03 01:13:04;;;;;;;0.50;0.50;;;;;;;;;;5092883;28;20881;-63
2021/12/03 01:15:32;;;;;;;0.73;0.73;;;;;;;;;;5092578;28;20181;-62
2021/12/03 01:17:58;;;;;;;0.60;0.60;;;;;;;;;;5074389;28;20199;-64
2021/12/03 01:20:25;;;;;;;0.60;0.60;;;;;;;;;;5092416;28;20171;-63
2021/12/03 01:22:52;;;;;;;0.60;0.60;;;;;;;;;;5092511;28;20182;-61
2021/12/03 01:25:19;;;;;;;0.50;0.50;;;;;;;;;;5092530;28;20253;-63
2021/12/03 01:27:46;;;;;;;0.50;0.50;;;;;;;;;;5092407;28;20669;-62
2021/12/03 01:30:13;;;;;;;0.50;0.50;;;;;;;;;;5092184;28;20174;-62
2021/12/03 01:32:39;;;;;;;0.60;0.60;;;;;;;;;;5092341;28;20177;-61
2021/12/03 01:35:06;;;;;;;0.60;0.60;;;;;;;;;;5092389;28;20166;-63
2021/12/03 01:37:32;;;;;;;0.50;0.50;;;;;;;;;;5092181;28;20239;-63
2021/12/03 01:39:58;;;;;;;0.50;0.50;;;;;;;;;;5092286;28;20580;-63
2021/12/03 01:42:24;;;;;;;0.50;0.50;;;;;;;;;;5092062;28;20549;-63
2021/12/03 01:44:50;;;;;;;0.60;0.60;;;;;;;;;;5092240;28;20170;-63
2021/12/03 01:47:16;;;;;;;0.60;0.60;;;;;;;;;;5092258;28;20412;-63
2021/12/03 01:49:42;;;;;;;0.50;0.50;;;;;;;;;;5092163;28;20291;-63
2021/12/03 01:52:08;;;;;;;0.60;0.60;;;;;;;;;;5091808;28;20427;-63
2021/12/03 01:54:34;;;;;;;0.60;0.60;;;;;;;;;;5091859;28;20547;-64
2021/12/03 01:57:00;;;;;;;0.60;0.60;;;;;;;;;;5092048;28;20194;-63
2021/12/03 01:59:26;;;;;;;0.50;0.50;;;;;;;;;;5092076;28;20670;-63
2021/12/03 02:01:52;;;;;;;0.50;0.50;;;;;;;;;;5091817;28;20170;-64
2021/12/03 02:04:18;;;;;;;0.50;0.50;;;;;;;;;;5091920;28;20174;-63
2021/12/03 02:06:44;;;;;;;0.60;0.60;;;;;;;;;;5091728;28;20339;-63
2021/12/03 02:09:10;;;;;;;0.60;0.60;;;;;;;;;;5091919;28;20253;-64
2021/12/03 02:11:36;;;;;;;0.50;0.50;;;;;;;;;;5091649;28;20739;-64
2021/12/03 02:14:03;;;;;;;0.60;0.60;;;;;;;;;;5091184;28;20826;-63
2021/12/03 02:16:29;;;;;;;0.60;0.60;;;;;;;;;;5091716;28;20652;-63
2021/12/03 02:18:55;;;;;;;0.50;0.50;;;;;;;;;;5091798;28;20176;-61
2021/12/03 02:21:22;;;;;;;0.57;0.57;;;;;;;;;;5091425;28;20435;-63
2021/12/03 02:23:48;;;;;;;0.60;0.60;;;;;;;;;;5091693;28;20242;-64
2021/12/03 02:26:14;;;;;;;0.60;0.60;;;;;;;;;;5091502;28;20170;-64
2021/12/03 02:28:42;;;;;;;0.60;0.60;;;;;;;;;;5091512;28;20194;-63
2021/12/03 02:31:08;;;;;;;0.70;0.70;;;;;;;;;;5091445;28;20207;-64
2021/12/03 02:33:35;;;;;;;0.50;0.50;;;;;;;;;;5091448;28;20198;-62
2021/12/03 02:36:01;;;;;;;0.60;0.60;;;;;;;;;;5091424;28;20496;-63
2021/12/03 02:38:27;;;;;;;0.52;0.52;;;;;;;;;;5091565;28;20182;-64
2021/12/03 02:40:55;;;;;;;0.60;0.60;;;;;;;;;;5091343;28;20219;-63
2021/12/03 02:43:21;;;;;;;0.50;0.50;;;;;;;;;;5091436;28;20173;-63
2021/12/03 02:45:47;;;;;;;0.60;0.60;;;;;;;;;;5091530;28;20182;-63
2021/12/03 02:48:13;;;;;;;0.60;0.60;;;;;;;;;;5073204;28;20201;-63
2021/12/03 02:50:39;;;;;;;0.50;0.50;;;;;;;;;;5091125;28;20215;-63
2021/12/03 02:53:05;;;;;;;0.60;0.60;;;;;;;;;;5091362;28;20684;-63
2021/12/03 02:55:31;;;;;;;0.60;0.60;;;;;;;;;;5091375;28;20177;-64
2021/12/03 02:57:57;;;;;;;0.60;0.60;;;;;;;;;;5073163;28;20186;-63
2021/12/03 03:00:24;;;;;;;0.50;0.50;;;;;;;;;;5091114;28;20170;-63
2021/12/03 03:02:50;;;;;;;0.55;0.55;;;;;;;;;;5091399;28;20197;-63
2021/12/03 03:05:18;;;;;;;0.50;0.50;;;;;;;;;;5091243;28;20217;-63
2021/12/03 03:07:44;;;;;;;0.70;0.70;;;;;;;;;;5101145;22;20597;-65
2021/12/03 03:10:14;;;;;;;0.50;0.50;;;;;;;;;;5074083;28;20589;-65
2021/12/03 03:12:42;;;;;;;0.60;0.60;;;;;;;;;;5074797;28;20167;-65
2021/12/03 03:15:09;;;;;;;0.60;0.60;;;;;;;;;;5074911;28;20182;-65
2021/12/03 03:17:35;;;;;;;0.60;0.60;;;;;;;;;;5056857;28;20203;-65
2021/12/03 03:20:01;;;;;;;0.50;0.50;;;;;;;;;;5074692;28;20213;-65
2021/12/03 03:22:28;;;;;;;0.60;0.60;;;;;;;;;;5074578;28;20179;-65
2021/12/03 03:24:54;;;;;;;0.60;0.60;;;;;;;;;;5074621;28;20546;-65
2021/12/03 03:27:21;;;;;;;0.60;0.60;;;;;;;;;;5074377;28;20195;-65
2021/12/03 03:29:48;;;;;;;0.57;0.57;;;;;;;;;;5074489;28;20544;-65
2021/12/03 03:32:14;;;;;;;0.50;0.50;;;;;;;;;;5074283;28;20159;-65
2021/12/03 03:34:41;;;;;;;0.60;0.60;;;;;;;;;;5056346;28;20206;-66
2021/12/03 03:37:07;;;;;;;0.60;0.60;;;;;;;;;;5074336;28;20250;-65
2021/12/03 03:39:33;;;;;;;0.50;0.50;;;;;;;;;;5074371;28;20654;-65
2021/12/03 03:41:59;;;;;;;0.50;0.50;;;;;;;;;;5056236;28;20933;-66
2021/12/03 03:44:25;;;;;;;0.50;0.50;;;;;;;;;;5074196;28;20183;-66
2021/12/03 03:46:51;;;;;;;0.50;0.50;;;;;;;;;;5073984;28;20175;-65
2021/12/03 03:49:20;;;;;;;0.50;0.50;;;;;;;;;;5074026;28;20182;-65
2021/12/03 03:51:50;;;;;;;0.50;0.50;;;;;;;;;;5055934;28;20210;-66
2021/12/03 03:54:16;;;;;;;0.70;0.70;;;;;;;;;;5074123;28;20282;-65
2021/12/03 03:56:42;;;;;;;0.50;0.50;;;;;;;;;;5074176;28;20171;-65
2021/12/03 03:59:08;;;;;;;0.68;0.68;;;;;;;;;;5073903;28;20270;-65
2021/12/03 04:01:34;;;;;;;0.60;0.60;;;;;;;;;;5056453;28;20657;-65
2021/12/03 04:04:00;;;;;;;0.60;0.60;;;;;;;;;;5074197;28;20171;-65
2021/12/03 04:06:26;;;;;;;0.60;0.60;;;;;;;;;;5074076;28;20766;-65
2021/12/03 04:08:52;;;;;;;0.60;0.60;;;;;;;;;;5073732;28;20499;-66
2021/12/03 04:11:20;;;;;;;0.60;0.60;;;;;;;;;;5073480;28;20493;-65
2021/12/03 04:13:46;;;;;;;0.57;0.57;;;;;;;;;;5073579;28;21027;-66
2021/12/03 04:16:13;;;;;;;0.50;0.50;;;;;;;;;;5073673;28;20167;-65
2021/12/03 04:18:38;;;;;;;0.50;0.50;;;;;;;;;;5071877;28;20206;-65
2021/12/03 04:21:04;;;;;;;0.60;0.60;;;;;;;;;;5073578;28;20171;-65
2021/12/03 04:23:30;;;;;;;0.60;0.60;;;;;;;;;;5055552;28;20424;-65
2021/12/03 04:25:56;;;;;;;0.57;0.57;;;;;;;;;;5073512;28;20414;-65
2021/12/03 04:28:22;;;;;;;0.50;0.50;;;;;;;;;;5073356;28;21013;-65
2021/12/03 04:30:49;;;;;;;0.50;0.50;;;;;;;;;;5073230;28;20412;-65
2021/12/03 04:33:15;;;;;;;0.52;0.52;;;;;;;;;;5073365;28;20203;-65
2021/12/03 04:35:41;;;;;;;0.60;0.60;;;;;;;;;;5073296;28;20168;-66
2021/12/03 04:38:07;;;;;;;0.57;0.57;;;;;;;;;;5055399;28;20202;-66
2021/12/03 04:40:34;;;;;;;0.50;0.50;;;;;;;;;;5073021;28;20500;-65
2021/12/03 04:43:00;;;;;;;0.50;0.50;;;;;;;;;;5073124;28;20179;-66
2021/12/03 04:45:27;;;;;;;0.50;0.50;;;;;;;;;;5073051;28;20258;-66
2021/12/03 04:47:54;;;;;;;0.60;0.60;;;;;;;;;;5073038;28;20437;-65
2021/12/03 04:50:21;;;;;;;0.50;0.50;;;;;;;;;;5072850;28;20198;-65
2021/12/03 04:52:47;;;;;;;0.50;0.50;;;;;;;;;;5072961;28;20254;-66
2021/12/03 04:55:14;;;;;;;0.60;0.60;;;;;;;;;;5072816;28;20224;-65
2021/12/03 04:57:40;;;;;;;0.60;0.60;;;;;;;;;;5072697;28;20194;-66
2021/12/03 05:00:08;;;;;;;0.60;0.60;;;;;;;;;;5072698;28;20171;-65
2021/12/03 05:02:34;;;;;;;0.60;0.60;;;;;;;;;;5072568;28;20176;-65
2021/12/03 05:05:03;;;;;;;0.50;0.50;;;;;;;;;;5072738;28;20222;-65
2021/12/03 05:10:05;;;;;;;0.60;0.60;;;;;;;;;;5072331;28;20658;-65
2021/12/03 05:12:31;;;;;;;0.60;0.60;;;;;;;;;;5072356;28;20178;-66
2021/12/03 05:14:57;;;;;;;0.60;0.60;;;;;;;;;;5072466;28;20538;-65
2021/12/03 05:17:23;;;;;;;0.50;0.50;;;;;;;;;;5054531;28;20183;-65
2021/12/03 05:19:49;;;;;;;0.70;0.70;;;;;;;;;;5072502;28;20535;-65
2021/12/03 05:22:15;;;;;;;0.50;0.50;;;;;;;;;;5072143;28;20900;-66
2021/12/03 05:24:45;;;;;;;0.50;0.50;;;;;;;;;;5072325;28;20254;-65
2021/12/03 05:27:11;;;;;;;0.50;0.50;;;;;;;;;;5072247;28;20608;-64
2021/12/03 05:29:37;;;;;;;0.50;0.50;;;;;;;;;;5071993;28;20222;-64
2021/12/03 05:32:03;;;;;;;0.60;0.60;;;;;;;;;;5054051;28;20187;-66
2021/12/03 05:34:30;;;;;;;0.60;0.60;;;;;;;;;;5071940;28;20211;-65
2021/12/03 05:36:55;;;;;;;0.60;0.60;;;;;;;;;;5071974;28;20164;-64
2021/12/03 05:39:22;;;;;;;0.63;0.63;;;;;;;;;;5072520;28;20175;-65
2021/12/03 05:41:48;;;;;;;0.50;0.50;;;;;;;;;;5072061;28;20688;-64
2021/12/03 05:44:14;;;;;;;0.60;0.60;;;;;;;;;;5072221;28;20175;-64
2021/12/03 05:46:40;;;;;;;0.50;0.50;;;;;;;;;;5071906;28;20186;-64
2021/12/03 05:49:06;;;;;;;0.50;0.50;;;;;;;;;;5071852;28;20199;-64
2021/12/03 05:51:32;;;;;;;0.50;0.50;;;;;;;;;;5071578;28;20466;-65
2021/12/03 05:53:58;;;;;;;0.50;0.50;;;;;;;;;;5071893;28;20206;-64
2021/12/03 05:56:24;;;;;;;0.50;0.50;;;;;;;;;;5071654;28;20170;-64
2021/12/03 05:58:50;;;;;;;0.50;0.50;;;;;;;;;;5072027;28;20191;-64
2021/12/03 06:01:17;;;;;;;0.68;0.68;;;;;;;;;;5071559;28;20405;-64
2021/12/03 06:03:43;;;;;;;0.45;0.45;;;;;;;;;;5070919;28;20171;-64
2021/12/03 06:06:09;;;;;;;0.50;0.50;;;;;;;;;;5052373;28;20238;-65
2021/12/03 06:08:35;;;;;;;0.50;0.50;;;;;;;;;;5051731;28;20461;-63
2021/12/03 06:11:01;;;;;;;0.40;0.40;;;;;;;;;;5060785;28;20601;-64
2021/12/03 06:13:27;;;;;;;0.50;0.50;;;;;;;;;;5054039;28;20462;-64
2021/12/03 06:15:54;;;;;;;0.50;0.50;;;;;;;;;;5051494;28;20406;-64
2021/12/03 06:18:20;;;;;;;0.50;0.50;;;;;;;;;;5062134;28;20445;-64
2021/12/03 06:20:46;;;;;;;0.60;0.60;;;;;;;;;;5071339;28;20167;-64
2021/12/03 06:23:12;;;;;;;0.50;0.50;;;;;;;;;;5070447;28;20453;-65
2021/12/03 06:25:38;;;;;;;0.60;0.60;;;;;;;;;;5071403;28;20171;-65
2021/12/03 06:28:04;;;;;;;0.50;0.50;;;;;;;;;;5062996;28;20444;-64
2021/12/03 06:30:30;;;;;;;0.60;0.60;;;;;;;;;;5054774;28;20520;-64
2021/12/03 06:32:56;;;;;;;0.50;0.50;;;;;;;;;;5051209;28;20191;-65
2021/12/03 06:35:22;;;;;;;0.50;0.50;;;;;;;;;;5051300;28;20406;-64
2021/12/03 06:37:49;;;;;;;0.50;0.50;;;;;;;;;;5052794;28;20211;-64
2021/12/03 06:40:20;;;;;;;0.50;0.50;;;;;;;;;;5051363;28;20647;-65
2021/12/03 06:42:46;;;;;;;0.50;0.50;;;;;;;;;;5054301;28;20259;-64
2021/12/03 06:45:13;;;;;;;0.60;0.60;;;;;;;;;;5055346;28;20207;-64
2021/12/03 06:47:39;;;;;;;0.60;0.60;;;;;;;;;;5055058;28;20430;-64
2021/12/03 06:50:07;;;;;;;0.50;0.50;;;;;;;;;;5055041;28;20180;-64
2021/12/03 06:52:35;;;;;;;0.50;0.50;;;;;;;;;;5055108;28;20164;-64
2021/12/03 06:55:04;;;;;;;0.60;0.60;;;;;;;;;;5055127;28;20168;-64
2021/12/03 06:57:30;;;;;;;0.50;0.50;;;;;;;;;;5055044;28;20605;-64
2021/12/03 06:59:56;;;;;;;0.60;0.60;;;;;;;;;;5054969;28;20172;-64
2021/12/03 07:02:22;;;;;;;0.50;0.50;;;;;;;;;;5054791;28;20708;-64
2021/12/03 07:04:48;;;;;;;0.50;0.50;;;;;;;;;;5054760;28;20172;-64
2021/12/03 07:07:14;;;;;;;0.60;0.60;;;;;;;;;;5054626;28;20191;-65
2021/12/03 07:09:41;;;;;;;0.50;0.50;;;;;;;;;;5054923;28;20182;-65
2021/12/03 07:12:08;;;;;;;0.50;0.50;;;;;;;;;;5054499;28;20438;-65
2021/12/03 07:14:34;;;;;;;0.60;0.60;;;;;;;;;;5054586;28;20701;-65
2021/12/03 07:17:05;;;;;;;0.60;0.60;;;;;;;;;;5054510;28;20180;-65
2021/12/03 07:19:31;;;;;;;0.50;0.50;;;;;;;;;;5055069;28;20425;-65
2021/12/03 07:21:57;;;;;;;0.50;0.50;;;;;;;;;;5036560;28;20172;-65
2021/12/03 07:24:23;;;;;;;0.60;0.60;;;;;;;;;;5054613;28;20496;-65
2021/12/03 07:26:49;;;;;;;0.50;0.50;;;;;;;;;;5054506;28;20168;-65
2021/12/03 07:29:15;;;;;;;0.53;0.53;;;;;;;;;;5054367;28;20425;-65
2021/12/03 07:31:41;;;;;;;0.50;0.50;;;;;;;;;;5054123;28;20410;-65
2021/12/03 07:34:07;;;;;;;0.70;0.70;;;;;;;;;;5054279;28;20204;-65
2021/12/03 07:36:33;;;;;;;0.50;0.50;;;;;;;;;;5050001;28;20459;-65
2021/12/03 07:38:59;;;;;;;0.60;0.60;;;;;;;;;;5074228;28;20195;-66
2021/12/03 07:41:24;;;;;;;0.50;0.50;;;;;;;;;;5073832;28;20415;-65
2021/12/03 07:43:50;;;;;;;0.50;0.50;;;;;;;;;;5073918;28;20449;-65
2021/12/03 07:46:16;;;;;;;0.60;0.60;;;;;;;;;;5073726;28;20425;-65
2021/12/03 07:48:46;;;;;;;0.60;0.60;;;;;;;;;;5073723;28;20437;-65
2021/12/03 07:51:13;;;;;;;0.50;0.50;;;;;;;;;;5073609;28;20498;-65
2021/12/03 07:53:38;;;;;;;0.50;0.50;;;;;;;;;;5073486;28;20195;-65
2021/12/03 07:56:05;;;;;;;0.50;0.50;;;;;;;;;;5073708;28;20228;-65
2021/12/03 07:58:30;;;;;;;0.52;0.52;;;;;;;;;;5073689;28;20432;-65
2021/12/03 08:00:57;;;;;;;0.50;0.50;;;;;;;;;;5073271;28;20446;-65
2021/12/03 08:03:24;;;;;;;0.50;0.50;;;;;;;;;;5073650;28;20413;-65
2021/12/03 08:05:50;;;;;;;0.50;0.50;;;;;;;;;;5073705;28;20554;-65
2021/12/03 08:08:23;;;;;;;0.60;0.60;;;;;;;;;;5073410;28;20215;-65
2021/12/03 08:10:50;;;;;;;0.50;0.50;;;;;;;;;;5072830;28;20776;-66
2021/12/03 08:13:16;;;;;;;0.60;0.60;;;;;;;;;;5073313;28;20206;-65
2021/12/03 08:15:42;;;;;;;0.50;0.50;;;;;;;;;;5073390;28;20650;-66
2021/12/03 08:18:08;;;;;;;0.55;0.55;;;;;;;;;;5073420;28;20199;-65
2021/12/03 08:20:34;;;;;;;0.60;0.60;;;;;;;;;;5071787;28;20167;-65
2021/12/03 08:23:01;;;;;;;0.52;0.52;;;;;;;;;;5073526;28;20665;-65
2021/12/03 08:25:27;;;;;;;0.55;0.55;;;;;;;;;;5073581;28;20187;-66
2021/12/03 08:27:54;;;;;;;0.50;0.50;;;;;;;;;;5073379;28;20195;-65
2021/12/03 08:30:20;;;;;;;0.50;0.50;;;;;;;;;;5073205;28;20873;-65
2021/12/03 08:32:46;;;;;;;0.50;0.50;;;;;;;;;;5055318;28;20564;-65
2021/12/03 08:35:12;;;;;;;0.60;0.60;;;;;;;;;;5072661;28;20185;-65
2021/12/03 08:37:43;;;;;;;0.50;0.50;;;;;;;;;;5073223;28;20258;-65
2021/12/03 08:40:10;;;;;;;0.50;0.50;;;;;;;;;;5073157;28;20444;-64
2021/12/03 08:42:36;;;;;;;0.60;0.60;;;;;;;;;;5073173;28;20168;-65
2021/12/03 08:45:04;;;;;;;0.50;0.50;;;;;;;;;;5073173;28;20195;-65
2021/12/03 08:47:30;;;;;;;0.50;0.50;;;;;;;;;;5072943;28;20200;-65
2021/12/03 08:49:56;;;;;;;0.50;0.50;;;;;;;;;;5072941;28;20203;-65
2021/12/03 08:57:26;;;;;;;0.70;0.70;;;;;;;;;;5072863;28;20195;-65
2021/12/03 08:59:53;;;;;;;0.57;0.57;;;;;;;;;;5072860;28;20174;-65
2021/12/03 09:02:19;;;;;;;0.50;0.50;;;;;;;;;;5072715;28;20256;-65
2021/12/03 09:04:45;;;;;;;0.50;0.50;;;;;;;;;;5072094;28;20171;-65
2021/12/03 09:07:11;;;;;;;0.60;0.60;;;;;;;;;;5072812;28;20290;-65
2021/12/03 09:09:38;;;;;;;0.50;0.50;;;;;;;;;;5073718;28;20210;-65
2021/12/03 09:12:04;;;;;;;0.50;0.50;;;;;;;;;;5070598;28;20409;-66
2021/12/03 09:19:44;;;;;;;0.50;0.50;;;;;;;;;;5071790;28;20516;-65
2021/12/03 09:22:16;;;;;;;0.50;0.50;;;;;;;;;;5071822;28;20254;-67
2021/12/03 09:24:42;;;;;;;0.60;0.60;;;;;;;;;;5071888;28;20190;-65
2021/12/03 09:27:08;;;;;;;0.50;0.50;;;;;;;;;;5072109;28;20535;-65
2021/12/03 09:29:36;;;;;;;0.50;0.50;;;;;;;;;;5072496;28;20409;-65
2021/12/03 09:32:02;;;;;;;0.60;0.60;;;;;;;;;;5072322;28;20171;-65
2021/12/03 09:34:31;;;;;;;0.50;0.50;;;;;;;;;;5072270;28;20573;-65
2021/12/03 09:36:57;;;;;;;0.50;0.50;;;;;;;;;;5072092;28;20256;-65
2021/12/03 09:39:24;;;;;;;0.60;0.60;;;;;;;;;;5072247;28;20171;-65
2021/12/03 09:41:51;;;;;;;0.50;0.50;;;;;;;;;;5071898;28;20621;-65
2021/12/03 09:44:17;;;;;;;0.60;0.60;;;;;;;;;;5072005;28;20171;-65
2021/12/03 09:46:44;;;;;;;0.57;0.57;;;;;;;;;;5072004;28;20642;-65
2021/12/03 09:54:36;;;;;;;0.60;0.60;;;;;;;;;;5071900;28;20820;-65
2021/12/03 09:57:09;;;;;;;0.50;0.50;;;;;;;;;;5071929;28;20550;-65
2021/12/03 10:05:31;;;;;;;0.60;0.60;;;;;;;;;;5071658;28;20186;-65
2021/12/03 10:13:50;;;;;;;0.60;0.60;;;;;;;;;;5071722;28;20249;-65
2021/12/03 10:27:34;;;;;;;0.50;0.50;;;;;;;;;;5071708;28;20234;-65
2021/12/03 10:43:44;;;;;;;0.50;0.50;;;;;;;;;;5071494;28;20242;-65
2021/12/03 10:51:22;;;;;;;0.50;0.50;;;;;;;;;;5071265;28;20225;-65
2021/12/03 10:53:58;;;;;;;0.50;0.50;;;;;;;;;;5071122;28;20548;-65
2021/12/03 10:59:47;;;;;;;0.60;0.60;;;;;;;;;;5009084;28;20189;-63
2021/12/03 11:13:31;;;;;;;0.50;0.50;;;;;;;;;;5071163;28;20397;-63
2021/12/03 11:30:00;;;;;;;0.50;0.50;;;;;;;;;;5074959;28;20188;-64
2021/12/03 12:13:44;;;;;;;0.57;0.57;;;;;;;;;;5073592;28;20188;-64
2021/12/03 12:27:01;;;;;;;0.50;0.50;;;;;;;;;;4972361;28;20228;-65
2021/12/03 13:00:17;;;;;;;0.50;0.50;;;;;;;;;;5073134;28;20192;-65
2021/12/03 13:08:24;;;;;;;0.50;0.50;;;;;;;;;;5072627;28;20217;-65
2021/12/03 13:19:01;;;;;;;0.60;0.60;;;;;;;;;;5072376;28;20193;-65
2021/12/03 13:59:51;;;;;;;0.60;0.60;;;;;;;;;;5075867;28;20258;-65
2021/12/03 14:03:06;;;;;;;0.60;0.60;;;;;;;;;;5075960;28;20224;-65
2021/12/03 14:08:38;;;;;;;0.50;0.50;;;;;;;;;;5075832;28;20303;-65
2021/12/03 14:20:07;;;;;;;0.50;0.50;;;;;;;;;;5071666;28;20287;-65
2021/12/03 14:44:36;;;;;;;0.40;0.40;;;;;;;;;;5071331;28;20550;-64
2021/12/03 14:53:12;;;;;;;0.50;0.50;;;;;;;;;;5071567;28;20592;-65
2021/12/03 14:55:39;;;;;;;0.60;0.60;;;;;;;;;;5071113;28;20218;-65
2021/12/03 14:58:12;;;;;;;0.50;0.50;;;;;;;;;;5070968;28;20183;-66
2021/12/03 15:08:07;;;;;;;0.50;0.50;;;;;;;;;;5075953;28;20210;-66
2021/12/03 15:13:27;;;;;;;0.50;0.50;;;;;;;;;;5074971;28;20173;-65
2021/12/03 15:17:03;;;;;;;0.50;0.50;;;;;;;;;;5074939;28;20198;-65
2021/12/03 15:21:26;;;;;;;0.50;0.50;;;;;;;;;;5074410;28;20167;-65
2021/12/03 15:27:00;;;;;;;0.50;0.50;;;;;;;;;;5054775;28;20211;-65
2021/12/03 16:20:10;;;;;;;0.50;0.50;;;;;;;;;;5053886;28;20172;-65
2021/12/03 16:22:48;;;;;;;0.60;0.60;;;;;;;;;;5053653;28;20199;-65
2021/12/03 16:25:33;;;;;;;0.50;0.50;;;;;;;;;;5053520;28;20190;-65
2021/12/03 16:43:37;;;;;;;0.50;0.50;;;;;;;;;;5053364;28;20233;-65
2021/12/03 16:52:33;;;;;;;0.50;0.50;;;;;;;;;;5053232;28;20601;-65
2021/12/03 16:55:00;;;;;;;0.50;0.50;;;;;;;;;;5052913;28;20199;-65
2021/12/03 16:57:33;;;;;;;0.50;0.50;;;;;;;;;;5052962;28;20242;-65
2021/12/03 17:00:08;;;;;;;0.70;0.70;;;;;;;;;;5053143;28;20647;-65
2021/12/03 17:02:39;;;;;;;0.60;0.60;;;;;;;;;;5053040;28;20270;-65
2021/12/03 17:05:54;;;;;;;0.50;0.50;;;;;;;;;;5053142;28;20249;-65
2021/12/03 17:19:17;;;;;;;0.50;0.50;;;;;;;;;;5052724;28;20439;-65
2021/12/03 17:27:36;;;;;;;0.50;0.50;;;;;;;;;;5052117;28;20176;-65
2021/12/03 17:51:14;;;;;;;0.50;0.50;;;;;;;;;;5051665;28;20180;-65
2021/12/03 17:54:03;;;;;;;0.60;0.60;;;;;;;;;;5033813;28;20210;-65
2021/12/03 17:56:33;;;;;;;0.50;0.50;;;;;;;;;;5052009;28;20176;-65
2021/12/03 18:01:48;;;;;;;0.50;0.50;;;;;;;;;;5051498;28;20172;-65
2021/12/03 18:04:34;;;;;;;0.50;0.50;;;;;;;;;;5051742;28;20567;-65
2021/12/03 18:07:10;;;;;;;0.60;0.60;;;;;;;;;;5051499;28;20176;-65
2021/12/03 18:10:04;;;;;;;0.55;0.55;;;;;;;;;;5051714;28;20270;-65
2021/12/03 18:13:00;;;;;;;0.60;0.60;;;;;;;;;;5051469;28;20168;-66
2021/12/03 18:57:40;;;;;;;0.60;0.60;;;;;;;;;;5038956;28;20246;-65
2021/12/03 18:59:29;;;;;;;0.68;0.68;;;;;;;;;;5045924;28;20187;-65
2021/12/03 19:01:55;;;;;;;0.70;0.70;;;;;;;;;;5054865;28;20172;-65
2021/12/03 19:04:26;;;;;;;0.60;0.60;;;;;;;;;;5055111;28;20429;-65
2021/12/03 19:07:04;;;;;;;0.60;0.60;;;;;;;;;;5055015;28;20234;-65
2021/12/03 19:09:44;;;;;;;0.60;0.60;;;;;;;;;;5054949;28;20266;-65
2021/12/03 19:12:13;;;;;;;0.60;0.60;;;;;;;;;;5054654;28;20259;-65
2021/12/03 19:14:47;;;;;;;0.60;0.60;;;;;;;;;;5054720;28;20253;-65
2021/12/03 19:17:13;;;;;;;0.50;0.50;;;;;;;;;;5054761;28;20245;-65
2021/12/03 19:19:43;;;;;;;0.60;0.60;;;;;;;;;;5054854;28;20169;-65
2021/12/03 19:22:09;;;;;;;0.50;0.50;;;;;;;;;;5054445;28;20406;-65
2021/12/03 19:24:35;;;;;;;0.50;0.50;;;;;;;;;;5054674;28;20592;-65
2021/12/03 19:27:02;;;;;;;0.60;0.60;;;;;;;;;;5054454;28;20176;-66
2021/12/03 19:29:31;;;;;;;0.50;0.50;;;;;;;;;;5054481;28;20164;-65
2021/12/03 19:31:57;;;;;;;0.50;0.50;;;;;;;;;;5054275;28;20187;-65
2021/12/03 19:34:23;;;;;;;0.60;0.60;;;;;;;;;;5054119;28;20203;-65
2021/12/03 19:36:50;;;;;;;0.60;0.60;;;;;;;;;;5054427;28;20915;-65
2021/12/03 19:39:18;;;;;;;0.50;0.50;;;;;;;;;;5054309;28;20188;-65
2021/12/03 19:44:34;;;;;;;0.70;0.70;;;;;;;;;;5054502;28;20640;-66
2021/12/03 19:47:00;;;;;;;0.50;0.50;;;;;;;;;;5054202;28;20187;-65
2021/12/03 19:51:59;;;;;;;0.50;0.50;;;;;;;;;;5054001;28;20421;-65
2021/12/03 19:54:25;;;;;;;0.60;0.60;;;;;;;;;;5054239;28;20223;-65
2021/12/03 19:56:51;;;;;;;0.70;0.70;;;;;;;;;;5054209;28;20180;-65
2021/12/03 19:59:18;;;;;;;0.50;0.50;;;;;;;;;;5054052;28;20428;-65
2021/12/03 20:01:45;;;;;;;0.52;0.52;;;;;;;;;;5054025;28;20179;-65
2021/12/03 20:04:13;;;;;;;0.60;0.60;;;;;;;;;;5053998;28;20176;-65
2021/12/03 20:06:44;;;;;;;0.60;0.60;;;;;;;;;;5053950;28;20201;-65
2021/12/03 20:09:16;;;;;;;0.50;0.50;;;;;;;;;;5053781;28;20291;-65
2021/12/03 20:12:06;;;;;;;0.70;0.70;;;;;;;;;;5053698;28;20225;-65
2021/12/03 20:14:31;;;;;;;0.60;0.60;;;;;;;;;;5053110;28;20210;-65
2021/12/03 20:17:06;;;;;;;0.60;0.60;;;;;;;;;;5053631;28;20183;-65
2021/12/03 20:19:38;;;;;;;0.60;0.60;;;;;;;;;;5053686;28;20211;-66
2021/12/03 20:22:50;;;;;;;0.50;0.50;;;;;;;;;;5053502;28;20179;-65
2021/12/03 20:25:16;;;;;;;0.50;0.50;;;;;;;;;;5047671;28;20180;-65
2021/12/03 20:30:16;;;;;;;0.60;0.60;;;;;;;;;;5053524;28;20180;-65
2021/12/03 20:33:06;;;;;;;0.50;0.50;;;;;;;;;;5053514;28;20225;-65
2021/12/03 20:38:18;;;;;;;0.52;0.52;;;;;;;;;;5053489;28;20234;-65
2021/12/03 20:40:51;;;;;;;0.70;0.70;;;;;;;;;;5053402;28;20187;-65
2021/12/03 20:46:01;;;;;;;0.50;0.50;;;;;;;;;;5052883;28;20168;-65
2021/12/03 20:51:30;;;;;;;0.50;0.50;;;;;;;;;;5053195;28;20176;-65
2021/12/03 20:53:46;;;;;;;0.60;0.60;;;;;;;;;;5052553;28;20966;-65
2021/12/03 21:09:42;;;;;;;0.50;0.50;;;;;;;;;;5107497;22;20236;-64
2021/12/03 21:12:18;;;;;;;0.50;0.50;;;;;;;;;;5090742;28;20743;-64
2021/12/03 21:14:54;;;;;;;0.50;0.50;;;;;;;;;;5093057;28;20619;-64
2021/12/03 21:20:15;;;;;;;0.50;0.50;;;;;;;;;;5092701;28;20685;-63
2021/12/03 21:22:46;;;;;;;0.50;0.50;;;;;;;;;;5092608;28;20193;-64
2021/12/03 21:25:15;;;;;;;0.50;0.50;;;;;;;;;;5092785;28;20673;-64
2021/12/03 21:27:43;;;;;;;0.50;0.50;;;;;;;;;;5091305;28;20178;-63
2021/12/03 21:43:15;;;;;;;0.50;0.50;;;;;;;;;;5092864;28;20861;-63
2021/12/03 21:45:41;;;;;;;0.60;0.60;;;;;;;;;;5092332;28;20202;-65
2021/12/03 21:48:08;;;;;;;0.50;0.50;;;;;;;;;;5076866;28;20698;-65
2021/12/03 21:50:34;;;;;;;0.60;0.60;;;;;;;;;;5070795;28;20244;-65
2021/12/03 21:53:02;;;;;;;0.50;0.50;;;;;;;;;;5071454;28;20202;-65
2021/12/03 21:55:28;;;;;;;0.60;0.60;;;;;;;;;;5071785;28;20622;-63
2021/12/03 21:57:54;;;;;;;0.50;0.50;;;;;;;;;;5071792;28;20170;-63
2021/12/03 22:00:20;;;;;;;0.60;0.60;;;;;;;;;;5071417;28;20171;-64
2021/12/03 22:02:46;;;;;;;0.60;0.60;;;;;;;;;;5071767;28;20171;-64
2021/12/03 22:05:12;;;;;;;0.50;0.50;;;;;;;;;;5071754;28;20176;-63
2021/12/03 22:07:38;;;;;;;0.50;0.50;;;;;;;;;;5071710;28;20224;-63
2021/12/03 22:10:05;;;;;;;0.50;0.50;;;;;;;;;;5071247;28;20418;-62
2021/12/03 22:12:30;;;;;;;0.50;0.50;;;;;;;;;;5071691;28;20178;-64
2021/12/03 22:14:57;;;;;;;0.50;0.50;;;;;;;;;;5071725;28;20203;-64
2021/12/03 22:17:23;;;;;;;0.60;0.60;;;;;;;;;;5071590;28;20414;-62
2021/12/03 22:19:49;;;;;;;0.63;0.63;;;;;;;;;;5071629;28;20183;-63
2021/12/03 22:22:16;;;;;;;0.50;0.50;;;;;;;;;;5070899;28;20251;-64
2021/12/03 22:24:42;;;;;;;0.50;0.50;;;;;;;;;;5071434;28;20175;-64
2021/12/03 22:27:10;;;;;;;0.50;0.50;;;;;;;;;;5070817;28;20181;-64
2021/12/03 22:29:36;;;;;;;0.60;0.60;;;;;;;;;;5071746;28;20192;-63
2021/12/03 22:32:04;;;;;;;0.60;0.60;;;;;;;;;;5070801;28;20228;-64
2021/12/03 22:34:30;;;;;;;0.50;0.50;;;;;;;;;;5071554;28;20495;-64
2021/12/03 22:36:56;;;;;;;0.50;0.50;;;;;;;;;;5071602;28;20172;-64
2021/12/03 22:39:22;;;;;;;0.40;0.40;;;;;;;;;;5071463;28;20618;-64
2021/12/03 22:41:51;;;;;;;0.50;0.50;;;;;;;;;;5073684;28;20400;-64
2021/12/03 22:44:17;;;;;;;0.70;0.70;;;;;;;;;;5073388;28;20307;-63
2021/12/03 22:46:48;;;;;;;0.60;0.60;;;;;;;;;;5071955;28;20176;-63
2021/12/03 22:54:16;;;;;;;0.60;0.60;;;;;;;;;;5071130;28;20199;-64